createdAt,value
2018-07-23T00:01:15.531Z,99.90
2018-07-23T00:03:43.818Z,99.90
2018-07-23T00:06:12.150Z,99.90
2018-07-23T00:08:40.431Z,99.90
2018-07-23T00:11:08.841Z,99.90
2018-07-23T00:13:37.143Z,99.90
2018-07-23T00:16:05.473Z,99.90
2018-07-23T00:18:33.746Z,99.90
2018-07-23T00:21:02.013Z,99.90
2018-07-23T00:23:30.309Z,99.90
2018-07-23T00:25:58.578Z,99.90
2018-07-23T00:28:26.885Z,99.90
2018-07-23T00:30:55.158Z,99.90
2018-07-23T00:33:23.466Z,99.90
2018-07-23T00:35:51.759Z,99.90
2018-07-23T00:40:48.149Z,99.90
2018-07-23T00:43:16.433Z,99.90
2018-07-23T00:45:44.722Z,99.90
2018-07-23T00:48:13.019Z,99.90
2018-07-23T00:50:41.329Z,99.90
2018-07-23T00:53:09.619Z,99.90
2018-07-23T00:55:37.906Z,99.90
2018-07-23T00:58:06.228Z,99.90
2018-07-23T01:00:34.534Z,99.90
2018-07-23T01:03:06.299Z,99.90
2018-07-23T01:05:36.352Z,99.90
2018-07-23T01:08:04.763Z,99.90
2018-07-23T01:10:33.087Z,99.90
2018-07-23T01:13:01.403Z,99.90
2018-07-23T01:15:29.691Z,99.90
2018-07-23T01:17:57.961Z,99.90
2018-07-23T01:20:26.234Z,99.90
2018-07-23T01:22:54.504Z,99.90
2018-07-23T01:25:22.796Z,99.90
2018-07-23T01:27:51.161Z,99.90
2018-07-23T01:30:19.453Z,99.90
2018-07-23T01:35:15.776Z,99.90
2018-07-23T01:37:44.061Z,99.90
2018-07-23T01:40:12.400Z,99.90
2018-07-23T01:42:40.682Z,99.90
2018-07-23T01:45:09.001Z,99.90
2018-07-23T01:47:37.339Z,99.90
2018-07-23T01:52:33.738Z,99.90
2018-07-23T01:55:02.081Z,99.90
2018-07-23T01:57:30.372Z,99.90
2018-07-23T01:59:58.647Z,99.90
2018-07-23T02:02:26.948Z,99.90
2018-07-23T02:04:55.347Z,99.90
2018-07-23T02:07:23.655Z,99.90
2018-07-23T02:09:51.953Z,99.90
2018-07-23T02:12:20.268Z,99.90
2018-07-23T02:14:48.544Z,99.90
2018-07-23T02:17:16.893Z,99.90
2018-07-23T02:19:45.205Z,99.90
2018-07-23T02:22:13.481Z,99.90
2018-07-23T02:24:41.804Z,99.90
2018-07-23T02:27:10.112Z,99.90
2018-07-23T02:29:38.394Z,99.90
2018-07-23T02:32:06.744Z,99.90
2018-07-23T02:34:35.016Z,99.90
2018-07-23T02:37:03.320Z,99.90
2018-07-23T02:39:31.590Z,99.90
2018-07-23T02:41:59.931Z,99.90
2018-07-23T02:44:28.236Z,99.90
2018-07-23T02:46:56.622Z,99.90
2018-07-23T02:49:24.941Z,99.90
2018-07-23T02:51:53.238Z,99.90
2018-07-23T02:54:21.581Z,99.90
2018-07-23T02:56:49.885Z,99.90
2018-07-23T02:59:18.213Z,99.90
2018-07-23T03:01:46.533Z,99.90
2018-07-23T03:04:14.973Z,99.90
2018-07-23T03:06:43.280Z,99.90
2018-07-23T03:09:11.603Z,99.90
2018-07-23T03:11:39.877Z,99.90
2018-07-23T03:14:08.196Z,99.90
2018-07-23T03:16:36.553Z,99.90
2018-07-23T03:19:04.890Z,99.90
2018-07-23T03:21:33.200Z,99.90
2018-07-23T03:24:01.505Z,99.90
2018-07-23T03:26:29.799Z,99.90
2018-07-23T03:28:58.082Z,99.90
2018-07-23T03:31:26.384Z,99.90
2018-07-23T03:33:54.653Z,99.90
2018-07-23T03:36:23.008Z,99.90
2018-07-23T03:38:51.304Z,99.90
2018-07-23T03:41:19.581Z,99.90
2018-07-23T03:43:47.941Z,99.90
2018-07-23T03:48:44.391Z,99.90
2018-07-23T03:53:40.735Z,99.90
2018-07-23T03:56:09.020Z,99.90
2018-07-23T03:58:37.340Z,99.90
2018-07-23T04:01:05.718Z,99.90
2018-07-23T04:03:34.053Z,99.90
2018-07-23T04:08:30.378Z,99.90
2018-07-23T04:10:58.661Z,99.90
2018-07-23T04:13:27.056Z,99.90
2018-07-23T04:15:55.369Z,99.90
2018-07-23T04:18:23.644Z,99.90
2018-07-23T04:20:51.946Z,99.90
2018-07-23T04:23:20.257Z,99.90
2018-07-23T04:25:48.536Z,99.90
2018-07-23T04:28:16.825Z,99.90
2018-07-23T04:30:45.124Z,99.90
2018-07-23T04:33:13.406Z,99.90
2018-07-23T04:35:41.727Z,99.90
2018-07-23T04:38:10.040Z,99.90
2018-07-23T04:40:38.356Z,99.90
2018-07-23T04:43:06.625Z,99.90
2018-07-23T04:45:34.931Z,99.90
2018-07-23T04:48:03.726Z,99.90
2018-07-23T04:50:32.046Z,99.90
2018-07-23T04:53:00.407Z,99.90
2018-07-23T04:55:28.706Z,99.90
2018-07-23T04:57:57.003Z,99.90
2018-07-23T05:00:25.332Z,99.90
2018-07-23T05:02:53.635Z,99.90
2018-07-23T05:05:21.944Z,99.90
2018-07-23T05:07:50.232Z,99.90
2018-07-23T05:10:18.685Z,99.90
2018-07-23T05:12:46.972Z,99.90
2018-07-23T05:15:15.291Z,99.90
2018-07-23T05:17:43.658Z,99.90
2018-07-23T05:20:11.948Z,99.90
2018-07-23T05:22:40.262Z,99.90
2018-07-23T05:25:08.584Z,99.90
2018-07-23T05:27:36.963Z,99.90
2018-07-23T05:30:05.499Z,99.90
2018-07-23T05:32:33.802Z,99.90
2018-07-23T05:35:02.553Z,99.90
2018-07-23T05:37:30.806Z,99.90
2018-07-23T05:39:59.105Z,99.90
2018-07-23T05:42:27.439Z,99.90
2018-07-23T05:44:55.989Z,99.90
2018-07-23T05:47:24.283Z,99.90
2018-07-23T05:49:52.627Z,99.90
2018-07-23T05:52:21.007Z,99.90
2018-07-23T05:54:49.319Z,99.90
2018-07-23T05:57:17.635Z,99.90
2018-07-23T06:06:32.285Z,99.90
2018-07-23T06:09:00.571Z,99.90
2018-07-23T06:11:28.909Z,99.90
2018-07-23T06:13:57.319Z,99.90
2018-07-23T06:16:25.658Z,99.90
2018-07-23T06:18:53.972Z,99.90
2018-07-23T06:21:22.381Z,99.90
2018-07-23T06:23:50.787Z,99.90
2018-07-23T06:26:19.129Z,99.90
2018-07-23T06:28:47.401Z,99.90
2018-07-23T06:31:15.725Z,99.90
2018-07-23T06:33:44.178Z,99.90
2018-07-23T06:36:12.528Z,99.90
2018-07-23T06:38:40.802Z,99.90
2018-07-23T06:41:09.089Z,99.90
2018-07-23T06:43:37.421Z,99.90
2018-07-23T06:46:05.744Z,99.90
2018-07-23T06:48:34.294Z,99.90
2018-07-23T06:51:02.651Z,99.90
2018-07-23T06:53:31.104Z,99.90
2018-07-23T06:55:59.511Z,99.90
2018-07-23T06:58:27.926Z,99.90
2018-07-23T07:00:56.265Z,99.90
2018-07-23T07:03:24.672Z,99.90
2018-07-23T07:05:53.043Z,99.90
2018-07-23T07:08:21.464Z,99.90
2018-07-23T07:10:49.820Z,99.90
2018-07-23T07:13:18.078Z,96.40
2018-07-23T07:15:46.359Z,96.50
2018-07-23T07:18:14.688Z,92.70
2018-07-23T07:20:42.997Z,90.70
2018-07-23T07:23:11.306Z,89.90
2018-07-23T07:25:39.638Z,90.70
2018-07-23T07:28:07.949Z,90.60
2018-07-23T07:30:36.278Z,93.40
2018-07-23T07:33:04.640Z,95.00
2018-07-23T07:35:32.915Z,94.50
2018-07-23T07:38:01.273Z,96.30
2018-07-23T07:40:29.524Z,94.80
2018-07-23T07:45:26.071Z,92.60
2018-07-23T07:47:54.411Z,93.50
2018-07-23T07:50:22.688Z,84.70
2018-07-23T07:52:51.020Z,81.30
2018-07-23T07:55:19.334Z,81.60
2018-07-23T07:57:47.644Z,80.60
2018-07-23T08:00:15.946Z,83.80
2018-07-23T08:02:44.204Z,81.00
2018-07-23T08:05:13.215Z,79.90
2018-07-23T08:07:41.515Z,85.00
2018-07-23T08:10:09.867Z,83.30
2018-07-23T08:12:38.253Z,80.00
2018-07-23T08:15:06.826Z,81.80
2018-07-23T08:17:35.140Z,79.90
2018-07-23T08:20:03.534Z,78.70
2018-07-23T08:22:31.823Z,73.40
2018-07-23T08:25:00.130Z,71.80
2018-07-23T08:27:28.390Z,67.60
2018-07-23T08:29:56.702Z,70.50
2018-07-23T08:32:25.007Z,69.20
2018-07-23T08:34:53.282Z,68.20
2018-07-23T08:37:21.602Z,71.00
2018-07-23T08:39:49.883Z,69.90
2018-07-23T08:42:18.267Z,72.00
2018-07-23T08:44:46.536Z,76.60
2018-07-23T08:47:14.827Z,70.80
2018-07-23T08:49:43.127Z,67.70
2018-07-23T08:52:11.478Z,65.70
2018-07-23T08:54:39.780Z,66.40
2018-07-23T08:57:08.066Z,64.70
2018-07-23T08:59:36.368Z,65.40
2018-07-23T09:02:04.685Z,67.30
2018-07-23T09:04:32.937Z,69.30
2018-07-23T09:07:01.237Z,63.10
2018-07-23T09:09:29.515Z,67.00
2018-07-23T09:14:25.850Z,68.30
2018-07-23T09:16:54.129Z,68.30
2018-07-23T09:19:22.398Z,68.20
2018-07-23T09:21:50.713Z,70.70
2018-07-23T09:24:19.081Z,73.50
2018-07-23T09:26:47.413Z,73.60
2018-07-23T09:29:15.982Z,78.40
2018-07-23T09:31:44.264Z,80.50
2018-07-23T09:34:12.559Z,82.70
2018-07-23T09:36:40.853Z,87.40
2018-07-23T09:39:09.785Z,91.10
2018-07-23T09:41:38.095Z,90.30
2018-07-23T09:44:06.803Z,85.70
2018-07-23T09:46:35.191Z,89.30
2018-07-23T09:49:03.469Z,86.80
2018-07-23T09:51:31.752Z,86.00
2018-07-23T09:54:00.061Z,86.10
2018-07-23T09:56:28.313Z,90.50
2018-07-23T09:58:56.631Z,88.60
2018-07-23T10:01:24.914Z,90.00
2018-07-23T10:03:53.208Z,91.50
2018-07-23T10:06:21.495Z,92.20
2018-07-23T10:08:49.793Z,92.00
2018-07-23T10:11:18.056Z,93.70
2018-07-23T10:13:46.376Z,94.70
2018-07-23T10:16:14.629Z,91.80
2018-07-23T10:18:42.948Z,93.30
2018-07-23T10:21:11.254Z,92.00
2018-07-23T10:23:39.526Z,93.60
2018-07-23T10:26:07.819Z,92.10
2018-07-23T10:31:04.123Z,91.40
2018-07-23T10:33:32.411Z,91.80
2018-07-23T10:36:00.710Z,91.00
2018-07-23T10:38:28.989Z,90.70
2018-07-23T10:40:57.270Z,93.10
2018-07-23T10:43:25.772Z,90.90
2018-07-23T10:45:54.049Z,90.10
2018-07-23T10:48:22.480Z,90.20
2018-07-23T10:50:50.791Z,90.80
2018-07-23T10:53:19.068Z,90.90
2018-07-23T10:55:47.430Z,91.20
2018-07-23T10:58:15.724Z,90.40
2018-07-23T11:00:44.016Z,91.40
2018-07-23T11:03:12.307Z,91.50
2018-07-23T11:05:40.584Z,92.90
2018-07-23T11:08:09.110Z,90.60
2018-07-23T11:10:37.361Z,90.50
2018-07-23T11:13:05.833Z,90.50
2018-07-23T11:15:34.107Z,90.20
2018-07-23T11:18:02.474Z,90.80
2018-07-23T11:20:30.772Z,90.10
2018-07-23T11:22:59.101Z,90.40
2018-07-23T11:25:41.449Z,89.00
2018-07-23T11:27:55.689Z,85.90
2018-07-23T11:30:24.013Z,84.10
2018-07-23T11:32:52.278Z,85.00
2018-07-23T11:37:48.577Z,86.90
2018-07-23T11:40:16.868Z,84.10
2018-07-23T11:42:45.142Z,86.80
2018-07-23T11:45:13.458Z,84.90
2018-07-23T11:47:41.741Z,87.50
2018-07-23T11:50:10.099Z,88.80
2018-07-23T11:52:38.604Z,87.00
2018-07-23T11:55:07.117Z,85.90
2018-07-23T11:57:35.393Z,89.60
2018-07-23T12:00:04.531Z,88.50
2018-07-23T12:02:32.968Z,88.00
2018-07-23T12:05:01.356Z,86.40
2018-07-23T12:07:29.626Z,89.30
2018-07-23T12:09:57.929Z,89.60
2018-07-23T12:12:26.199Z,88.10
2018-07-23T12:14:54.504Z,85.50
2018-07-23T12:17:22.826Z,87.10
2018-07-23T12:19:51.102Z,87.30
2018-07-23T12:22:19.414Z,87.90
2018-07-23T12:24:47.712Z,85.20
2018-07-23T12:27:16.013Z,85.00
2018-07-23T12:29:44.289Z,86.80
2018-07-23T12:32:12.661Z,86.10
2018-07-23T12:34:40.944Z,85.20
2018-07-23T12:37:09.263Z,84.40
2018-07-23T12:39:37.529Z,84.70
2018-07-23T12:42:05.874Z,82.40
2018-07-23T12:44:34.166Z,84.60
2018-07-23T12:47:02.684Z,84.10
2018-07-23T12:49:30.910Z,85.00
2018-07-23T12:51:59.185Z,88.20
2018-07-23T12:54:27.486Z,79.00
2018-07-23T13:01:32.546Z,81.90
2018-07-23T13:04:00.803Z,84.00
2018-07-23T13:06:29.091Z,85.40
2018-07-23T13:08:57.363Z,85.50
2018-07-23T13:11:25.675Z,85.60
2018-07-23T13:13:56.950Z,86.00
2018-07-23T13:18:53.244Z,86.50
2018-07-23T13:21:21.544Z,85.60
2018-07-23T13:23:49.828Z,86.90
2018-07-23T13:26:18.120Z,83.90
2018-07-23T13:28:46.451Z,85.50
2018-07-23T13:31:14.709Z,84.40
2018-07-23T13:33:43.005Z,84.40
2018-07-23T13:36:11.282Z,85.20
2018-07-23T13:38:39.576Z,85.80
2018-07-23T13:41:07.937Z,84.00
2018-07-23T13:43:36.378Z,82.30
2018-07-23T13:46:04.667Z,85.00
2018-07-23T13:48:32.956Z,84.80
2018-07-23T13:51:01.314Z,82.00
2018-07-23T13:53:29.608Z,81.00
2018-07-23T13:55:57.930Z,84.60
2018-07-23T13:58:26.258Z,83.90
2018-07-23T14:00:54.654Z,86.40
2018-07-23T14:03:22.926Z,86.10
2018-07-23T14:05:51.286Z,84.80
2018-07-23T14:08:19.537Z,83.90
2018-07-23T14:10:47.857Z,85.80
2018-07-23T14:13:16.141Z,85.20
2018-07-23T14:15:44.476Z,86.70
2018-07-23T14:18:12.746Z,86.30
2018-07-23T14:20:41.046Z,84.00
2018-07-23T14:23:09.501Z,86.00
2018-07-23T14:25:37.823Z,83.70
2018-07-23T14:28:06.135Z,83.00
2018-07-23T14:30:34.444Z,82.80
2018-07-23T14:33:02.803Z,86.30
2018-07-23T14:37:59.149Z,84.80
2018-07-23T14:40:27.491Z,84.10
2018-07-23T14:42:55.889Z,82.40
2018-07-23T14:45:24.162Z,82.10
2018-07-23T14:47:52.489Z,82.60
2018-07-23T14:50:20.787Z,78.30
2018-07-23T14:52:49.126Z,82.20
2018-07-23T14:55:17.436Z,83.00
2018-07-23T14:57:45.795Z,81.30
2018-07-23T15:00:14.245Z,80.60
2018-07-23T15:02:42.564Z,79.10
2018-07-23T15:05:10.933Z,79.40
2018-07-23T15:07:39.230Z,81.70
2018-07-23T15:10:07.603Z,79.70
2018-07-23T15:12:35.937Z,77.30
2018-07-23T15:15:04.352Z,80.30
2018-07-23T15:17:32.634Z,80.00
2018-07-23T15:20:00.913Z,78.30
2018-07-23T15:22:29.256Z,78.70
2018-07-23T15:24:57.579Z,80.10
2018-07-23T15:27:26.058Z,80.80
2018-07-23T15:29:54.361Z,78.90
2018-07-23T15:32:22.678Z,78.90
2018-07-23T15:34:50.980Z,79.80
2018-07-23T15:37:19.267Z,78.90
2018-07-23T15:39:47.560Z,78.90
2018-07-23T15:42:15.845Z,78.30
2018-07-23T15:47:12.207Z,78.40
2018-07-23T15:49:40.483Z,77.80
2018-07-23T15:52:08.760Z,76.60
2018-07-23T15:54:37.140Z,77.30
2018-07-23T15:57:05.494Z,78.60
2018-07-23T15:59:33.980Z,77.50
2018-07-23T16:02:02.266Z,78.50
2018-07-23T16:04:30.633Z,79.80
2018-07-23T16:09:27.019Z,82.70
2018-07-23T16:11:55.332Z,81.40
2018-07-23T16:14:23.668Z,82.30
2018-07-23T16:16:51.962Z,80.20
2018-07-23T16:19:20.271Z,79.90
2018-07-23T16:21:48.567Z,79.10
2018-07-23T16:24:16.894Z,84.60
2018-07-23T16:26:45.201Z,80.40
2018-07-23T16:29:13.494Z,79.00
2018-07-23T16:31:41.760Z,78.40
2018-07-23T16:34:10.059Z,80.10
2018-07-23T16:36:38.349Z,78.30
2018-07-23T16:39:09.334Z,75.70
2018-07-23T16:41:37.638Z,77.80
2018-07-23T16:44:06.478Z,76.50
2018-07-23T16:46:34.771Z,75.60
2018-07-23T16:49:03.046Z,76.70
2018-07-23T16:51:31.504Z,77.20
2018-07-23T16:53:59.956Z,77.80
2018-07-23T16:56:28.280Z,75.40
2018-07-23T16:58:56.580Z,79.40
2018-07-23T17:01:24.840Z,77.20
2018-07-23T17:03:53.229Z,75.60
2018-07-23T17:06:21.568Z,76.70
2018-07-23T17:08:49.863Z,77.30
2018-07-23T17:11:18.200Z,74.70
2018-07-23T17:13:46.481Z,76.50
2018-07-23T17:16:14.932Z,73.60
2018-07-23T17:18:43.260Z,75.70
2018-07-23T17:21:12.149Z,74.50
2018-07-23T17:23:40.505Z,74.90
2018-07-23T17:26:08.802Z,76.00
2018-07-23T17:28:37.108Z,75.90
2018-07-23T17:31:05.443Z,76.10
2018-07-23T17:33:33.770Z,74.60
2018-07-23T17:36:02.088Z,75.80
2018-07-23T17:38:30.403Z,76.60
2018-07-23T17:40:58.731Z,75.50
2018-07-23T17:43:27.080Z,78.30
2018-07-23T17:45:55.514Z,75.80
2018-07-23T17:48:23.948Z,74.50
2018-07-23T17:50:52.258Z,75.00
2018-07-23T17:53:20.600Z,75.80
2018-07-23T17:55:49.011Z,74.80
2018-07-23T17:58:17.288Z,75.20
2018-07-23T18:00:45.596Z,74.90
2018-07-23T18:03:13.892Z,75.40
2018-07-23T18:05:42.258Z,76.10
2018-07-23T18:08:10.570Z,75.70
2018-07-23T18:10:38.868Z,77.90
2018-07-23T18:13:07.766Z,77.10
2018-07-23T18:15:36.119Z,79.10
2018-07-23T18:18:04.411Z,79.20
2018-07-23T18:20:32.724Z,78.80
2018-07-23T18:23:01.052Z,79.20
2018-07-23T18:25:29.364Z,79.20
2018-07-23T18:27:57.665Z,79.30
2018-07-23T18:30:25.985Z,79.30
2018-07-23T18:32:54.286Z,79.60
2018-07-23T18:35:22.572Z,79.30
2018-07-23T18:37:51.001Z,79.50
2018-07-23T18:40:19.306Z,79.70
2018-07-23T18:42:47.715Z,81.50
2018-07-23T18:45:16.020Z,80.70
2018-07-23T18:47:44.339Z,81.70
2018-07-23T18:50:12.770Z,82.40
2018-07-23T18:52:41.149Z,83.10
2018-07-23T18:55:09.498Z,82.60
2018-07-23T18:57:37.821Z,83.50
2018-07-23T19:00:06.405Z,84.50
2018-07-23T19:02:34.754Z,84.40
2018-07-23T19:05:03.074Z,83.50
2018-07-23T19:07:31.384Z,87.30
2018-07-23T19:09:59.664Z,90.40
2018-07-23T19:12:28.054Z,91.50
2018-07-23T19:14:56.531Z,91.80
2018-07-23T19:17:24.923Z,92.30
2018-07-23T19:19:53.245Z,93.10
2018-07-23T19:22:21.628Z,93.20
2018-07-23T19:24:50.038Z,94.80
2018-07-23T19:27:18.447Z,95.70
2018-07-23T19:29:46.829Z,94.90
2018-07-23T19:32:15.286Z,95.60
2018-07-23T19:34:43.709Z,94.80
2018-07-23T19:37:12.096Z,94.70
2018-07-23T19:39:40.420Z,96.20
2018-07-23T19:42:08.919Z,95.70
2018-07-23T19:44:37.203Z,95.80
2018-07-23T19:47:05.612Z,98.00
2018-07-23T19:49:33.980Z,98.40
2018-07-23T19:52:02.289Z,99.90
2018-07-23T19:54:30.813Z,99.90
2018-07-23T19:56:59.186Z,99.90
2018-07-23T19:59:27.505Z,99.90
2018-07-23T20:01:55.902Z,99.90
2018-07-23T20:04:24.175Z,99.90
2018-07-23T20:06:52.592Z,99.90
2018-07-23T20:09:20.930Z,99.90
2018-07-23T20:11:49.212Z,99.90
2018-07-23T20:14:17.558Z,99.90
2018-07-23T20:16:50.842Z,99.90
2018-07-23T20:19:19.326Z,99.90
2018-07-23T20:24:15.753Z,99.90
2018-07-23T20:26:44.106Z,99.90
2018-07-23T20:29:12.432Z,99.90
2018-07-23T20:31:40.708Z,99.90
2018-07-23T20:34:09.032Z,99.90
2018-07-23T20:36:37.344Z,99.90
2018-07-23T20:39:07.130Z,99.90
2018-07-23T20:41:35.532Z,99.90
2018-07-23T20:44:03.871Z,99.90
2018-07-23T20:46:32.268Z,99.90
2018-07-23T20:49:00.608Z,99.90
2018-07-23T20:51:29.089Z,99.90
2018-07-23T20:53:57.460Z,99.90
2018-07-23T20:56:25.827Z,99.90
2018-07-23T20:58:54.213Z,99.90
2018-07-23T21:01:22.644Z,99.90
2018-07-23T21:03:51.046Z,99.90
2018-07-23T21:06:19.331Z,99.90
2018-07-23T21:08:47.594Z,99.90
2018-07-23T21:11:16.001Z,99.90
2018-07-23T21:13:44.263Z,99.90
2018-07-23T21:16:12.546Z,99.90
2018-07-23T21:18:40.831Z,99.90
2018-07-23T21:21:09.118Z,99.90
2018-07-23T21:23:37.498Z,99.90
2018-07-23T21:26:06.052Z,99.90
2018-07-23T21:31:02.490Z,99.90
2018-07-23T21:33:30.794Z,99.90
2018-07-23T21:35:59.159Z,99.90
2018-07-23T21:38:27.443Z,99.90
2018-07-23T21:40:55.738Z,99.90
2018-07-23T21:43:24.089Z,99.90
2018-07-23T21:45:52.384Z,99.90
2018-07-23T21:48:21.102Z,99.90
2018-07-23T21:50:49.421Z,99.90
2018-07-23T21:55:45.776Z,99.90
2018-07-23T21:58:14.068Z,99.90
2018-07-23T22:00:42.550Z,99.90
2018-07-23T22:03:10.760Z,99.90
2018-07-23T22:05:39.898Z,99.90
2018-07-23T22:08:08.257Z,99.90
2018-07-23T22:13:04.727Z,99.90
2018-07-23T22:15:33.000Z,99.90
2018-07-23T22:18:01.294Z,99.90
2018-07-23T22:20:29.568Z,99.90
2018-07-23T22:22:57.905Z,99.90
2018-07-23T22:25:26.204Z,99.90
2018-07-23T22:27:54.512Z,99.90
2018-07-23T22:30:22.830Z,99.90
2018-07-23T22:32:51.114Z,99.90
2018-07-23T22:35:19.466Z,99.90
2018-07-23T22:37:47.805Z,99.90
2018-07-23T22:40:16.081Z,99.90
2018-07-23T22:42:44.614Z,99.90
2018-07-23T22:45:12.898Z,99.90
2018-07-23T22:47:41.189Z,99.90
2018-07-23T22:50:09.530Z,99.90
2018-07-23T22:52:37.843Z,99.90
2018-07-23T22:55:06.234Z,99.90
2018-07-23T22:57:34.571Z,99.90
2018-07-23T23:00:02.841Z,99.90
2018-07-23T23:02:31.126Z,99.90
2018-07-23T23:04:59.421Z,99.90
2018-07-23T23:07:27.814Z,99.90
2018-07-23T23:09:56.118Z,99.90
2018-07-23T23:12:24.375Z,99.90
2018-07-23T23:14:52.745Z,99.90
2018-07-23T23:17:21.060Z,99.90
2018-07-23T23:19:49.322Z,99.90
2018-07-23T23:22:17.702Z,99.90
2018-07-23T23:24:45.967Z,99.90
2018-07-23T23:27:14.284Z,99.90
2018-07-23T23:29:42.596Z,99.90
2018-07-23T23:32:10.966Z,99.90
2018-07-23T23:34:39.280Z,99.90
2018-07-23T23:37:07.553Z,99.90
2018-07-23T23:39:35.844Z,99.90
2018-07-23T23:42:04.110Z,99.90
2018-07-23T23:44:32.477Z,99.90
2018-07-23T23:47:00.738Z,99.90
2018-07-23T23:49:29.047Z,99.90
2018-07-23T23:51:57.315Z,99.90
2018-07-23T23:54:25.568Z,99.90
2018-07-23T23:56:53.877Z,99.90
2018-07-23T23:59:22.196Z,99.90
